sensor_id;sensor_type;location;lat;lon;timestamp;P1;durP1;ratioP1;P2;durP2;ratioP2
19521;SDS011;9905;52.126;5.596;2022-07-29T00:00:12;2.78;;;1.95;;
19521;SDS011;9905;52.126;5.596;2022-07-29T00:02:39;2.00;;;1.90;;
19521;SDS011;9905;52.126;5.596;2022-07-29T00:05:07;1.95;;;1.85;;
19521;SDS011;9905;52.126;5.596;2022-07-29T00:07:34;2.40;;;1.80;;
19521;SDS011;9905;52.126;5.596;2022-07-29T00:10:01;2.65;;;2.45;;
19521;SDS011;9905;52.126;5.596;2022-07-29T00:12:28;2.42;;;1.98;;
19521;SDS011;9905;52.126;5.596;2022-07-29T00:14:56;2.28;;;2.13;;
19521;SDS011;9905;52.126;5.596;2022-07-29T00:17:23;2.72;;;1.80;;
19521;SDS011;9905;52.126;5.596;2022-07-29T00:19:51;1.70;;;1.60;;
19521;SDS011;9905;52.126;5.596;2022-07-29T00:22:18;2.38;;;2.28;;
19521;SDS011;9905;52.126;5.596;2022-07-29T00:24:46;1.85;;;1.60;;
19521;SDS011;9905;52.126;5.596;2022-07-29T00:27:13;4.13;;;2.30;;
19521;SDS011;9905;52.126;5.596;2022-07-29T00:29:40;1.98;;;1.88;;
19521;SDS011;9905;52.126;5.596;2022-07-29T00:32:08;1.80;;;1.70;;
19521;SDS011;9905;52.126;5.596;2022-07-29T00:34:35;2.90;;;2.00;;
19521;SDS011;9905;52.126;5.596;2022-07-29T00:37:19;2.60;;;1.95;;
19521;SDS011;9905;52.126;5.596;2022-07-29T00:39:46;2.25;;;2.15;;
19521;SDS011;9905;52.126;5.596;2022-07-29T00:42:12;2.70;;;2.28;;
19521;SDS011;9905;52.126;5.596;2022-07-29T00:44:39;2.38;;;2.28;;
19521;SDS011;9905;52.126;5.596;2022-07-29T00:47:08;2.55;;;1.85;;
19521;SDS011;9905;52.126;5.596;2022-07-29T00:49:36;2.00;;;1.90;;
19521;SDS011;9905;52.126;5.596;2022-07-29T00:52:05;1.98;;;1.88;;
19521;SDS011;9905;52.126;5.596;2022-07-29T00:54:33;2.40;;;2.15;;
19521;SDS011;9905;52.126;5.596;2022-07-29T00:57:01;3.53;;;1.80;;
19521;SDS011;9905;52.126;5.596;2022-07-29T00:59:27;2.15;;;2.05;;
19521;SDS011;9905;52.126;5.596;2022-07-29T01:01:54;7.03;;;2.30;;
19521;SDS011;9905;52.126;5.596;2022-07-29T01:04:22;3.92;;;1.85;;
19521;SDS011;9905;52.126;5.596;2022-07-29T01:06:49;2.30;;;2.08;;
19521;SDS011;9905;52.126;5.596;2022-07-29T01:09:17;2.08;;;1.98;;
19521;SDS011;9905;52.126;5.596;2022-07-29T01:11:45;2.20;;;2.00;;
19521;SDS011;9905;52.126;5.596;2022-07-29T01:14:13;2.95;;;2.30;;
19521;SDS011;9905;52.126;5.596;2022-07-29T01:16:42;2.25;;;2.15;;
19521;SDS011;9905;52.126;5.596;2022-07-29T01:19:18;2.28;;;2.08;;
19521;SDS011;9905;52.126;5.596;2022-07-29T01:22:10;2.10;;;2.00;;
19521;SDS011;9905;52.126;5.596;2022-07-29T01:24:56;2.47;;;2.20;;
19521;SDS011;9905;52.126;5.596;2022-07-29T01:27:38;2.55;;;2.40;;
19521;SDS011;9905;52.126;5.596;2022-07-29T01:30:14;3.42;;;2.38;;
19521;SDS011;9905;52.126;5.596;2022-07-29T01:32:41;2.72;;;2.53;;
19521;SDS011;9905;52.126;5.596;2022-07-29T01:35:15;2.30;;;2.20;;
19521;SDS011;9905;52.126;5.596;2022-07-29T01:37:45;1.98;;;1.88;;
19521;SDS011;9905;52.126;5.596;2022-07-29T01:40:18;2.08;;;1.95;;
19521;SDS011;9905;52.126;5.596;2022-07-29T01:42:49;3.40;;;1.90;;
19521;SDS011;9905;52.126;5.596;2022-07-29T01:45:20;2.70;;;2.50;;
19521;SDS011;9905;52.126;5.596;2022-07-29T01:47:54;3.38;;;2.35;;
19521;SDS011;9905;52.126;5.596;2022-07-29T01:50:26;2.53;;;2.33;;
19521;SDS011;9905;52.126;5.596;2022-07-29T01:53:00;2.28;;;2.15;;
19521;SDS011;9905;52.126;5.596;2022-07-29T01:55:29;2.47;;;2.25;;
19521;SDS011;9905;52.126;5.596;2022-07-29T01:58:00;2.95;;;2.75;;
19521;SDS011;9905;52.126;5.596;2022-07-29T02:00:32;2.60;;;2.38;;
19521;SDS011;9905;52.126;5.596;2022-07-29T02:03:00;2.63;;;2.40;;
19521;SDS011;9905;52.126;5.596;2022-07-29T02:05:31;2.95;;;2.20;;
19521;SDS011;9905;52.126;5.596;2022-07-29T02:08:00;2.60;;;2.40;;
19521;SDS011;9905;52.126;5.596;2022-07-29T02:10:28;2.85;;;2.50;;
19521;SDS011;9905;52.126;5.596;2022-07-29T02:12:57;2.72;;;2.53;;
19521;SDS011;9905;52.126;5.596;2022-07-29T02:15:26;2.83;;;2.63;;
19521;SDS011;9905;52.126;5.596;2022-07-29T02:17:57;2.35;;;2.25;;
19521;SDS011;9905;52.126;5.596;2022-07-29T02:20:27;2.80;;;2.65;;
19521;SDS011;9905;52.126;5.596;2022-07-29T02:22:55;2.60;;;2.40;;
19521;SDS011;9905;52.126;5.596;2022-07-29T02:25:24;2.58;;;2.38;;
19521;SDS011;9905;52.126;5.596;2022-07-29T02:27:52;2.60;;;2.40;;
19521;SDS011;9905;52.126;5.596;2022-07-29T02:30:20;3.08;;;2.40;;
19521;SDS011;9905;52.126;5.596;2022-07-29T02:32:49;5.32;;;2.80;;
19521;SDS011;9905;52.126;5.596;2022-07-29T02:35:19;2.80;;;2.65;;
19521;SDS011;9905;52.126;5.596;2022-07-29T02:37:47;5.63;;;2.47;;
19521;SDS011;9905;52.126;5.596;2022-07-29T02:40:35;2.80;;;2.60;;
19521;SDS011;9905;52.126;5.596;2022-07-29T02:43:04;2.55;;;2.35;;
19521;SDS011;9905;52.126;5.596;2022-07-29T02:45:32;2.42;;;2.30;;
19521;SDS011;9905;52.126;5.596;2022-07-29T02:48:00;2.47;;;2.28;;
19521;SDS011;9905;52.126;5.596;2022-07-29T02:50:34;3.22;;;2.60;;
19521;SDS011;9905;52.126;5.596;2022-07-29T02:53:05;3.00;;;2.80;;
19521;SDS011;9905;52.126;5.596;2022-07-29T02:55:37;2.85;;;2.58;;
19521;SDS011;9905;52.126;5.596;2022-07-29T02:58:10;4.68;;;2.60;;
19521;SDS011;9905;52.126;5.596;2022-07-29T03:00:41;2.63;;;2.53;;
19521;SDS011;9905;52.126;5.596;2022-07-29T03:03:12;3.15;;;2.95;;
19521;SDS011;9905;52.126;5.596;2022-07-29T03:05:42;2.85;;;2.65;;
19521;SDS011;9905;52.126;5.596;2022-07-29T03:08:09;5.43;;;2.58;;
19521;SDS011;9905;52.126;5.596;2022-07-29T03:10:38;2.85;;;2.63;;
19521;SDS011;9905;52.126;5.596;2022-07-29T03:13:08;2.88;;;2.67;;
19521;SDS011;9905;52.126;5.596;2022-07-29T03:15:37;2.83;;;2.63;;
19521;SDS011;9905;52.126;5.596;2022-07-29T03:18:05;2.60;;;2.40;;
19521;SDS011;9905;52.126;5.596;2022-07-29T03:20:33;2.70;;;2.50;;
19521;SDS011;9905;52.126;5.596;2022-07-29T03:23:01;3.15;;;2.80;;
19521;SDS011;9905;52.126;5.596;2022-07-29T03:25:28;2.80;;;2.60;;
19521;SDS011;9905;52.126;5.596;2022-07-29T03:27:55;2.60;;;2.50;;
19521;SDS011;9905;52.126;5.596;2022-07-29T03:30:22;6.43;;;3.03;;
19521;SDS011;9905;52.126;5.596;2022-07-29T03:32:49;2.60;;;2.50;;
19521;SDS011;9905;52.126;5.596;2022-07-29T03:35:16;2.85;;;2.65;;
19521;SDS011;9905;52.126;5.596;2022-07-29T03:37:44;3.05;;;2.63;;
19521;SDS011;9905;52.126;5.596;2022-07-29T03:40:13;2.65;;;2.45;;
19521;SDS011;9905;52.126;5.596;2022-07-29T03:42:44;2.90;;;2.70;;
19521;SDS011;9905;52.126;5.596;2022-07-29T03:45:14;5.32;;;2.78;;
19521;SDS011;9905;52.126;5.596;2022-07-29T03:47:44;3.35;;;2.55;;
19521;SDS011;9905;52.126;5.596;2022-07-29T03:50:15;2.58;;;2.38;;
19521;SDS011;9905;52.126;5.596;2022-07-29T03:52:45;2.60;;;2.50;;
19521;SDS011;9905;52.126;5.596;2022-07-29T03:55:14;2.90;;;2.30;;
19521;SDS011;9905;52.126;5.596;2022-07-29T03:57:41;2.95;;;2.75;;
19521;SDS011;9905;52.126;5.596;2022-07-29T04:00:09;2.40;;;2.30;;
19521;SDS011;9905;52.126;5.596;2022-07-29T04:02:36;2.63;;;2.42;;
19521;SDS011;9905;52.126;5.596;2022-07-29T04:05:05;3.53;;;3.00;;
19521;SDS011;9905;52.126;5.596;2022-07-29T04:07:37;2.60;;;2.50;;
19521;SDS011;9905;52.126;5.596;2022-07-29T04:10:04;2.85;;;2.65;;
19521;SDS011;9905;52.126;5.596;2022-07-29T04:12:33;2.95;;;2.65;;
19521;SDS011;9905;52.126;5.596;2022-07-29T04:15:00;3.70;;;2.65;;
19521;SDS011;9905;52.126;5.596;2022-07-29T04:17:27;2.60;;;2.50;;
19521;SDS011;9905;52.126;5.596;2022-07-29T04:19:54;2.45;;;2.30;;
19521;SDS011;9905;52.126;5.596;2022-07-29T04:22:20;2.45;;;2.35;;
19521;SDS011;9905;52.126;5.596;2022-07-29T04:24:47;2.25;;;2.15;;
19521;SDS011;9905;52.126;5.596;2022-07-29T04:27:14;2.30;;;2.20;;
19521;SDS011;9905;52.126;5.596;2022-07-29T04:29:42;2.58;;;2.33;;
19521;SDS011;9905;52.126;5.596;2022-07-29T04:32:08;2.75;;;2.55;;
19521;SDS011;9905;52.126;5.596;2022-07-29T04:34:35;2.70;;;2.50;;
19521;SDS011;9905;52.126;5.596;2022-07-29T04:37:02;2.70;;;2.47;;
19521;SDS011;9905;52.126;5.596;2022-07-29T04:39:28;2.47;;;2.30;;
19521;SDS011;9905;52.126;5.596;2022-07-29T04:41:55;2.20;;;2.10;;
19521;SDS011;9905;52.126;5.596;2022-07-29T04:44:22;2.35;;;2.25;;
19521;SDS011;9905;52.126;5.596;2022-07-29T04:46:50;3.25;;;2.25;;
19521;SDS011;9905;52.126;5.596;2022-07-29T04:49:19;2.58;;;2.10;;
19521;SDS011;9905;52.126;5.596;2022-07-29T04:51:45;2.88;;;2.67;;
19521;SDS011;9905;52.126;5.596;2022-07-29T04:54:12;2.90;;;2.60;;
19521;SDS011;9905;52.126;5.596;2022-07-29T04:56:39;3.05;;;2.70;;
19521;SDS011;9905;52.126;5.596;2022-07-29T04:59:08;2.65;;;2.55;;
19521;SDS011;9905;52.126;5.596;2022-07-29T05:01:34;3.08;;;2.72;;
19521;SDS011;9905;52.126;5.596;2022-07-29T05:04:03;2.75;;;2.50;;
19521;SDS011;9905;52.126;5.596;2022-07-29T05:06:29;3.67;;;2.60;;
19521;SDS011;9905;52.126;5.596;2022-07-29T05:08:56;2.83;;;2.50;;
19521;SDS011;9905;52.126;5.596;2022-07-29T05:11:23;3.28;;;2.60;;
19521;SDS011;9905;52.126;5.596;2022-07-29T05:13:49;3.10;;;2.88;;
19521;SDS011;9905;52.126;5.596;2022-07-29T05:16:16;2.88;;;2.58;;
19521;SDS011;9905;52.126;5.596;2022-07-29T05:18:43;2.70;;;2.22;;
19521;SDS011;9905;52.126;5.596;2022-07-29T05:21:11;3.40;;;2.60;;
19521;SDS011;9905;52.126;5.596;2022-07-29T05:23:37;2.47;;;2.38;;
19521;SDS011;9905;52.126;5.596;2022-07-29T05:26:04;2.72;;;2.53;;
19521;SDS011;9905;52.126;5.596;2022-07-29T05:28:32;3.78;;;2.78;;
19521;SDS011;9905;52.126;5.596;2022-07-29T05:30:59;2.92;;;2.72;;
19521;SDS011;9905;52.126;5.596;2022-07-29T05:33:26;2.78;;;2.50;;
19521;SDS011;9905;52.126;5.596;2022-07-29T05:35:53;2.50;;;2.30;;
19521;SDS011;9905;52.126;5.596;2022-07-29T05:38:21;2.70;;;2.50;;
19521;SDS011;9905;52.126;5.596;2022-07-29T05:40:48;4.72;;;2.75;;
19521;SDS011;9905;52.126;5.596;2022-07-29T05:43:14;2.42;;;2.22;;
19521;SDS011;9905;52.126;5.596;2022-07-29T05:45:41;2.45;;;2.30;;
19521;SDS011;9905;52.126;5.596;2022-07-29T05:48:08;3.15;;;2.90;;
19521;SDS011;9905;52.126;5.596;2022-07-29T05:50:34;2.70;;;2.50;;
19521;SDS011;9905;52.126;5.596;2022-07-29T05:53:01;5.43;;;2.97;;
19521;SDS011;9905;52.126;5.596;2022-07-29T05:55:29;2.70;;;2.50;;
19521;SDS011;9905;52.126;5.596;2022-07-29T05:57:56;2.65;;;2.45;;
19521;SDS011;9905;52.126;5.596;2022-07-29T06:00:23;2.70;;;2.50;;
19521;SDS011;9905;52.126;5.596;2022-07-29T06:02:49;2.90;;;2.70;;
19521;SDS011;9905;52.126;5.596;2022-07-29T06:05:16;2.45;;;2.35;;
19521;SDS011;9905;52.126;5.596;2022-07-29T06:07:43;2.90;;;2.70;;
19521;SDS011;9905;52.126;5.596;2022-07-29T06:10:10;5.47;;;3.40;;
19521;SDS011;9905;52.126;5.596;2022-07-29T06:12:38;3.60;;;2.90;;
19521;SDS011;9905;52.126;5.596;2022-07-29T06:15:05;3.00;;;2.80;;
19521;SDS011;9905;52.126;5.596;2022-07-29T06:17:35;4.20;;;2.72;;
19521;SDS011;9905;52.126;5.596;2022-07-29T06:20:02;4.53;;;2.75;;
19521;SDS011;9905;52.126;5.596;2022-07-29T06:22:30;2.60;;;2.50;;
19521;SDS011;9905;52.126;5.596;2022-07-29T06:24:56;3.05;;;2.40;;
19521;SDS011;9905;52.126;5.596;2022-07-29T06:27:23;3.38;;;3.08;;
19521;SDS011;9905;52.126;5.596;2022-07-29T06:29:51;4.07;;;3.10;;
19521;SDS011;9905;52.126;5.596;2022-07-29T06:32:18;2.72;;;2.63;;
19521;SDS011;9905;52.126;5.596;2022-07-29T06:34:44;2.78;;;2.58;;
19521;SDS011;9905;52.126;5.596;2022-07-29T06:37:11;3.17;;;2.97;;
19521;SDS011;9905;52.126;5.596;2022-07-29T06:39:38;3.08;;;2.70;;
19521;SDS011;9905;52.126;5.596;2022-07-29T06:42:05;3.42;;;2.85;;
19521;SDS011;9905;52.126;5.596;2022-07-29T06:44:35;2.95;;;2.72;;
19521;SDS011;9905;52.126;5.596;2022-07-29T06:47:04;3.30;;;3.00;;
19521;SDS011;9905;52.126;5.596;2022-07-29T06:49:31;2.95;;;2.75;;
19521;SDS011;9905;52.126;5.596;2022-07-29T06:51:58;3.10;;;2.90;;
19521;SDS011;9905;52.126;5.596;2022-07-29T06:54:29;3.13;;;2.83;;
19521;SDS011;9905;52.126;5.596;2022-07-29T06:56:56;3.08;;;2.88;;
19521;SDS011;9905;52.126;5.596;2022-07-29T06:59:24;3.13;;;2.95;;
19521;SDS011;9905;52.126;5.596;2022-07-29T07:01:50;3.00;;;2.42;;
19521;SDS011;9905;52.126;5.596;2022-07-29T07:04:19;3.17;;;2.70;;
19521;SDS011;9905;52.126;5.596;2022-07-29T07:06:45;3.25;;;3.05;;
19521;SDS011;9905;52.126;5.596;2022-07-29T07:09:12;3.47;;;3.05;;
19521;SDS011;9905;52.126;5.596;2022-07-29T07:11:39;3.55;;;3.08;;
19521;SDS011;9905;52.126;5.596;2022-07-29T07:14:06;3.00;;;2.80;;
19521;SDS011;9905;52.126;5.596;2022-07-29T07:16:32;3.22;;;2.90;;
19521;SDS011;9905;52.126;5.596;2022-07-29T07:18:59;4.32;;;3.47;;
19521;SDS011;9905;52.126;5.596;2022-07-29T07:21:27;3.40;;;3.03;;
19521;SDS011;9905;52.126;5.596;2022-07-29T07:23:54;3.38;;;3.03;;
19521;SDS011;9905;52.126;5.596;2022-07-29T07:26:21;2.85;;;2.65;;
19521;SDS011;9905;52.126;5.596;2022-07-29T07:28:48;3.13;;;3.00;;
19521;SDS011;9905;52.126;5.596;2022-07-29T07:31:15;2.83;;;2.50;;
19521;SDS011;9905;52.126;5.596;2022-07-29T07:33:41;3.10;;;2.80;;
19521;SDS011;9905;52.126;5.596;2022-07-29T07:36:08;2.85;;;2.65;;
19521;SDS011;9905;52.126;5.596;2022-07-29T07:38:36;2.95;;;2.75;;
19521;SDS011;9905;52.126;5.596;2022-07-29T07:41:03;4.55;;;2.80;;
19521;SDS011;9905;52.126;5.596;2022-07-29T07:43:30;2.80;;;2.60;;
19521;SDS011;9905;52.126;5.596;2022-07-29T07:45:57;3.20;;;2.70;;
19521;SDS011;9905;52.126;5.596;2022-07-29T07:48:28;2.72;;;2.60;;
19521;SDS011;9905;52.126;5.596;2022-07-29T07:50:55;3.15;;;2.85;;
19521;SDS011;9905;52.126;5.596;2022-07-29T07:53:24;2.50;;;2.30;;
19521;SDS011;9905;52.126;5.596;2022-07-29T07:55:52;2.70;;;2.50;;
19521;SDS011;9905;52.126;5.596;2022-07-29T07:58:19;3.10;;;2.85;;
19521;SDS011;9905;52.126;5.596;2022-07-29T08:00:45;3.83;;;2.83;;
19521;SDS011;9905;52.126;5.596;2022-07-29T08:03:13;3.03;;;2.80;;
19521;SDS011;9905;52.126;5.596;2022-07-29T08:05:39;3.13;;;2.92;;
19521;SDS011;9905;52.126;5.596;2022-07-29T08:08:06;2.83;;;2.63;;
19521;SDS011;9905;52.126;5.596;2022-07-29T08:10:33;3.35;;;2.85;;
19521;SDS011;9905;52.126;5.596;2022-07-29T08:13:22;2.30;;;2.20;;
19521;SDS011;9905;52.126;5.596;2022-07-29T08:15:53;5.40;;;2.72;;
19521;SDS011;9905;52.126;5.596;2022-07-29T08:18:24;4.47;;;2.97;;
19521;SDS011;9905;52.126;5.596;2022-07-29T08:20:51;2.70;;;2.50;;
19521;SDS011;9905;52.126;5.596;2022-07-29T08:23:17;3.78;;;3.05;;
19521;SDS011;9905;52.126;5.596;2022-07-29T08:25:44;2.35;;;2.08;;
19521;SDS011;9905;52.126;5.596;2022-07-29T08:28:11;2.42;;;2.25;;
19521;SDS011;9905;52.126;5.596;2022-07-29T08:30:39;4.65;;;2.80;;
19521;SDS011;9905;52.126;5.596;2022-07-29T08:33:06;2.60;;;2.40;;
19521;SDS011;9905;52.126;5.596;2022-07-29T08:35:33;3.92;;;2.90;;
19521;SDS011;9905;52.126;5.596;2022-07-29T08:38:00;2.65;;;2.45;;
19521;SDS011;9905;52.126;5.596;2022-07-29T08:40:30;2.50;;;2.22;;
19521;SDS011;9905;52.126;5.596;2022-07-29T08:42:56;5.50;;;2.05;;
19521;SDS011;9905;52.126;5.596;2022-07-29T08:45:23;2.70;;;2.35;;
19521;SDS011;9905;52.126;5.596;2022-07-29T08:47:53;2.38;;;2.13;;
19521;SDS011;9905;52.126;5.596;2022-07-29T08:50:21;3.08;;;2.22;;
19521;SDS011;9905;52.126;5.596;2022-07-29T08:52:48;2.40;;;2.20;;
19521;SDS011;9905;52.126;5.596;2022-07-29T08:55:16;2.65;;;2.50;;
19521;SDS011;9905;52.126;5.596;2022-07-29T08:57:43;2.00;;;1.85;;
19521;SDS011;9905;52.126;5.596;2022-07-29T09:00:11;2.33;;;2.13;;
19521;SDS011;9905;52.126;5.596;2022-07-29T09:02:39;2.72;;;2.47;;
19521;SDS011;9905;52.126;5.596;2022-07-29T09:05:11;2.03;;;1.80;;
19521;SDS011;9905;52.126;5.596;2022-07-29T09:07:38;2.35;;;2.13;;
19521;SDS011;9905;52.126;5.596;2022-07-29T09:10:07;1.85;;;1.75;;
19521;SDS011;9905;52.126;5.596;2022-07-29T09:12:34;5.72;;;1.80;;
19521;SDS011;9905;52.126;5.596;2022-07-29T09:15:01;1.95;;;1.85;;
19521;SDS011;9905;52.126;5.596;2022-07-29T09:17:41;2.22;;;2.03;;
19521;SDS011;9905;52.126;5.596;2022-07-29T09:20:09;2.15;;;2.00;;
19521;SDS011;9905;52.126;5.596;2022-07-29T09:22:38;2.25;;;2.05;;
19521;SDS011;9905;52.126;5.596;2022-07-29T09:25:05;2.17;;;1.98;;
19521;SDS011;9905;52.126;5.596;2022-07-29T09:27:32;1.95;;;1.85;;
19521;SDS011;9905;52.126;5.596;2022-07-29T09:29:59;1.90;;;1.80;;
19521;SDS011;9905;52.126;5.596;2022-07-29T09:32:28;2.42;;;2.05;;
19521;SDS011;9905;52.126;5.596;2022-07-29T09:35:14;2.20;;;2.10;;
19521;SDS011;9905;52.126;5.596;2022-07-29T09:37:43;4.57;;;2.13;;
19521;SDS011;9905;52.126;5.596;2022-07-29T09:40:12;1.92;;;1.63;;
19521;SDS011;9905;52.126;5.596;2022-07-29T09:42:40;3.10;;;2.20;;
19521;SDS011;9905;52.126;5.596;2022-07-29T09:45:08;2.25;;;2.05;;
19521;SDS011;9905;52.126;5.596;2022-07-29T09:47:42;2.67;;;2.00;;
19521;SDS011;9905;52.126;5.596;2022-07-29T09:50:11;2.22;;;2.13;;
19521;SDS011;9905;52.126;5.596;2022-07-29T09:52:45;2.10;;;2.00;;
19521;SDS011;9905;52.126;5.596;2022-07-29T09:55:13;2.40;;;2.08;;
19521;SDS011;9905;52.126;5.596;2022-07-29T09:57:41;2.28;;;2.08;;
19521;SDS011;9905;52.126;5.596;2022-07-29T10:00:09;3.17;;;2.30;;
19521;SDS011;9905;52.126;5.596;2022-07-29T10:02:38;2.05;;;1.85;;
19521;SDS011;9905;52.126;5.596;2022-07-29T10:05:09;3.50;;;2.40;;
19521;SDS011;9905;52.126;5.596;2022-07-29T10:07:43;4.32;;;2.10;;
19521;SDS011;9905;52.126;5.596;2022-07-29T10:10:18;4.22;;;2.58;;
19521;SDS011;9905;52.126;5.596;2022-07-29T10:12:50;2.50;;;2.17;;
19521;SDS011;9905;52.126;5.596;2022-07-29T10:15:18;3.05;;;2.83;;
19521;SDS011;9905;52.126;5.596;2022-07-29T10:17:47;3.08;;;2.53;;
19521;SDS011;9905;52.126;5.596;2022-07-29T10:20:14;2.95;;;2.55;;
19521;SDS011;9905;52.126;5.596;2022-07-29T10:22:42;2.67;;;2.47;;
19521;SDS011;9905;52.126;5.596;2022-07-29T10:25:10;2.80;;;2.70;;
19521;SDS011;9905;52.126;5.596;2022-07-29T10:27:37;3.90;;;2.72;;
19521;SDS011;9905;52.126;5.596;2022-07-29T10:30:04;3.25;;;2.38;;
19521;SDS011;9905;52.126;5.596;2022-07-29T10:32:38;2.50;;;2.15;;
19521;SDS011;9905;52.126;5.596;2022-07-29T10:35:19;3.08;;;2.72;;
19521;SDS011;9905;52.126;5.596;2022-07-29T10:38:10;3.10;;;2.35;;
19521;SDS011;9905;52.126;5.596;2022-07-29T10:41:01;5.15;;;2.67;;
19521;SDS011;9905;52.126;5.596;2022-07-29T10:43:57;2.55;;;1.92;;
19521;SDS011;9905;52.126;5.596;2022-07-29T10:46:26;2.83;;;2.20;;
19521;SDS011;9905;52.126;5.596;2022-07-29T10:49:06;2.38;;;2.20;;
19521;SDS011;9905;52.126;5.596;2022-07-29T10:51:58;4.10;;;2.15;;
19521;SDS011;9905;52.126;5.596;2022-07-29T10:54:36;3.33;;;2.75;;
19521;SDS011;9905;52.126;5.596;2022-07-29T10:57:13;2.65;;;2.10;;
19521;SDS011;9905;52.126;5.596;2022-07-29T10:59:42;3.88;;;2.17;;
19521;SDS011;9905;52.126;5.596;2022-07-29T11:05:09;1.95;;;1.85;;
19521;SDS011;9905;52.126;5.596;2022-07-29T11:07:38;2.28;;;2.08;;
19521;SDS011;9905;52.126;5.596;2022-07-29T11:10:19;2.30;;;2.10;;
19521;SDS011;9905;52.126;5.596;2022-07-29T11:12:48;2.28;;;2.08;;
19521;SDS011;9905;52.126;5.596;2022-07-29T11:15:16;3.60;;;2.30;;
19521;SDS011;9905;52.126;5.596;2022-07-29T11:20:32;3.17;;;2.33;;
19521;SDS011;9905;52.126;5.596;2022-07-29T11:23:00;2.75;;;1.90;;
19521;SDS011;9905;52.126;5.596;2022-07-29T11:25:42;2.53;;;2.33;;
19521;SDS011;9905;52.126;5.596;2022-07-29T11:28:12;2.78;;;2.22;;
19521;SDS011;9905;52.126;5.596;2022-07-29T11:30:47;2.90;;;2.25;;
19521;SDS011;9905;52.126;5.596;2022-07-29T11:33:26;3.15;;;2.20;;
19521;SDS011;9905;52.126;5.596;2022-07-29T11:36:07;2.78;;;2.08;;
19521;SDS011;9905;52.126;5.596;2022-07-29T11:38:35;2.75;;;2.20;;
19521;SDS011;9905;52.126;5.596;2022-07-29T11:41:19;2.63;;;2.40;;
19521;SDS011;9905;52.126;5.596;2022-07-29T11:43:51;1.70;;;1.60;;
19521;SDS011;9905;52.126;5.596;2022-07-29T11:49:12;2.90;;;2.15;;
19521;SDS011;9905;52.126;5.596;2022-07-29T11:51:39;2.45;;;1.98;;
19521;SDS011;9905;52.126;5.596;2022-07-29T11:54:07;1.98;;;1.75;;
19521;SDS011;9905;52.126;5.596;2022-07-29T11:56:39;5.03;;;2.40;;
19521;SDS011;9905;52.126;5.596;2022-07-29T11:59:12;2.40;;;2.28;;
19521;SDS011;9905;52.126;5.596;2022-07-29T12:01:51;2.85;;;2.20;;
19521;SDS011;9905;52.126;5.596;2022-07-29T12:04:18;2.10;;;1.88;;
19521;SDS011;9905;52.126;5.596;2022-07-29T12:06:48;6.53;;;2.17;;
19521;SDS011;9905;52.126;5.596;2022-07-29T12:09:16;4.65;;;2.70;;
19521;SDS011;9905;52.126;5.596;2022-07-29T12:11:43;3.38;;;2.38;;
19521;SDS011;9905;52.126;5.596;2022-07-29T12:14:25;5.55;;;2.63;;
19521;SDS011;9905;52.126;5.596;2022-07-29T12:16:52;2.10;;;1.90;;
19521;SDS011;9905;52.126;5.596;2022-07-29T12:19:19;3.05;;;2.60;;
19521;SDS011;9905;52.126;5.596;2022-07-29T12:21:46;2.70;;;2.55;;
19521;SDS011;9905;52.126;5.596;2022-07-29T12:24:13;3.60;;;2.47;;
19521;SDS011;9905;52.126;5.596;2022-07-29T12:26:48;2.55;;;2.17;;
19521;SDS011;9905;52.126;5.596;2022-07-29T12:29:16;2.13;;;1.90;;
19521;SDS011;9905;52.126;5.596;2022-07-29T12:31:44;3.08;;;1.98;;
19521;SDS011;9905;52.126;5.596;2022-07-29T12:34:12;2.58;;;1.83;;
19521;SDS011;9905;52.126;5.596;2022-07-29T12:36:41;3.15;;;2.17;;
19521;SDS011;9905;52.126;5.596;2022-07-29T12:39:08;3.15;;;2.38;;
19521;SDS011;9905;52.126;5.596;2022-07-29T12:41:36;2.03;;;1.92;;
19521;SDS011;9905;52.126;5.596;2022-07-29T12:44:04;3.70;;;1.90;;
19521;SDS011;9905;52.126;5.596;2022-07-29T12:46:30;2.00;;;1.90;;
19521;SDS011;9905;52.126;5.596;2022-07-29T12:48:58;2.75;;;2.10;;
19521;SDS011;9905;52.126;5.596;2022-07-29T12:51:28;2.70;;;1.80;;
19521;SDS011;9905;52.126;5.596;2022-07-29T12:54:03;2.17;;;1.90;;
19521;SDS011;9905;52.126;5.596;2022-07-29T12:56:31;5.40;;;2.25;;
19521;SDS011;9905;52.126;5.596;2022-07-29T12:58:58;2.85;;;2.08;;
19521;SDS011;9905;52.126;5.596;2022-07-29T13:01:25;2.53;;;1.85;;
19521;SDS011;9905;52.126;5.596;2022-07-29T13:03:53;1.88;;;1.77;;
19521;SDS011;9905;52.126;5.596;2022-07-29T13:06:33;2.55;;;2.35;;
19521;SDS011;9905;52.126;5.596;2022-07-29T13:09:04;2.75;;;2.30;;
19521;SDS011;9905;52.126;5.596;2022-07-29T13:11:33;2.97;;;2.78;;
19521;SDS011;9905;52.126;5.596;2022-07-29T13:14:00;3.35;;;2.47;;
19521;SDS011;9905;52.126;5.596;2022-07-29T13:16:27;3.70;;;2.25;;
19521;SDS011;9905;52.126;5.596;2022-07-29T13:19:07;1.80;;;1.70;;
19521;SDS011;9905;52.126;5.596;2022-07-29T13:21:37;2.25;;;1.70;;
19521;SDS011;9905;52.126;5.596;2022-07-29T13:24:05;1.83;;;1.73;;
19521;SDS011;9905;52.126;5.596;2022-07-29T13:26:33;2.10;;;1.90;;
19521;SDS011;9905;52.126;5.596;2022-07-29T13:29:01;2.13;;;1.92;;
19521;SDS011;9905;52.126;5.596;2022-07-29T13:31:28;3.28;;;2.15;;
19521;SDS011;9905;52.126;5.596;2022-07-29T13:33:55;2.15;;;2.05;;
19521;SDS011;9905;52.126;5.596;2022-07-29T13:36:22;2.40;;;2.17;;
19521;SDS011;9905;52.126;5.596;2022-07-29T13:38:50;2.83;;;2.17;;
19521;SDS011;9905;52.126;5.596;2022-07-29T13:41:17;2.45;;;2.20;;
19521;SDS011;9905;52.126;5.596;2022-07-29T13:43:43;2.30;;;2.10;;
19521;SDS011;9905;52.126;5.596;2022-07-29T13:46:10;2.45;;;2.25;;
19521;SDS011;9905;52.126;5.596;2022-07-29T13:48:37;2.05;;;1.85;;
19521;SDS011;9905;52.126;5.596;2022-07-29T13:51:04;3.85;;;2.00;;
19521;SDS011;9905;52.126;5.596;2022-07-29T13:53:30;3.20;;;2.00;;
19521;SDS011;9905;52.126;5.596;2022-07-29T13:55:59;2.08;;;1.80;;
19521;SDS011;9905;52.126;5.596;2022-07-29T13:58:25;2.92;;;1.80;;
19521;SDS011;9905;52.126;5.596;2022-07-29T14:00:52;3.67;;;2.00;;
19521;SDS011;9905;52.126;5.596;2022-07-29T14:03:19;2.65;;;1.75;;
19521;SDS011;9905;52.126;5.596;2022-07-29T14:05:46;2.42;;;2.20;;
19521;SDS011;9905;52.126;5.596;2022-07-29T14:08:12;2.75;;;1.77;;
19521;SDS011;9905;52.126;5.596;2022-07-29T14:10:40;3.28;;;1.73;;
19521;SDS011;9905;52.126;5.596;2022-07-29T14:13:08;2.75;;;1.85;;
19521;SDS011;9905;52.126;5.596;2022-07-29T14:15:34;2.22;;;1.88;;
19521;SDS011;9905;52.126;5.596;2022-07-29T14:18:01;3.20;;;2.00;;
19521;SDS011;9905;52.126;5.596;2022-07-29T14:20:28;2.50;;;1.60;;
19521;SDS011;9905;52.126;5.596;2022-07-29T14:22:55;1.95;;;1.75;;
19521;SDS011;9905;52.126;5.596;2022-07-29T14:25:22;2.03;;;1.83;;
19521;SDS011;9905;52.126;5.596;2022-07-29T14:27:49;3.22;;;2.22;;
19521;SDS011;9905;52.126;5.596;2022-07-29T14:30:19;2.13;;;1.90;;
19521;SDS011;9905;52.126;5.596;2022-07-29T14:32:49;2.67;;;1.95;;
19521;SDS011;9905;52.126;5.596;2022-07-29T14:35:15;2.92;;;1.95;;
19521;SDS011;9905;52.126;5.596;2022-07-29T14:37:42;2.95;;;1.70;;
19521;SDS011;9905;52.126;5.596;2022-07-29T14:40:10;1.65;;;1.55;;
19521;SDS011;9905;52.126;5.596;2022-07-29T14:42:37;1.88;;;1.75;;
19521;SDS011;9905;52.126;5.596;2022-07-29T14:45:04;1.98;;;1.75;;
19521;SDS011;9905;52.126;5.596;2022-07-29T14:47:34;2.53;;;1.85;;
19521;SDS011;9905;52.126;5.596;2022-07-29T14:50:04;3.63;;;1.73;;
19521;SDS011;9905;52.126;5.596;2022-07-29T14:52:32;3.30;;;2.10;;
19521;SDS011;9905;52.126;5.596;2022-07-29T14:54:59;3.50;;;1.50;;
19521;SDS011;9905;52.126;5.596;2022-07-29T14:57:26;2.47;;;1.77;;
19521;SDS011;9905;52.126;5.596;2022-07-29T14:59:53;1.70;;;1.50;;
19521;SDS011;9905;52.126;5.596;2022-07-29T15:02:20;3.40;;;1.30;;
19521;SDS011;9905;52.126;5.596;2022-07-29T15:04:48;2.80;;;1.40;;
19521;SDS011;9905;52.126;5.596;2022-07-29T15:07:16;3.22;;;1.50;;
19521;SDS011;9905;52.126;5.596;2022-07-29T15:09:43;2.15;;;1.63;;
19521;SDS011;9905;52.126;5.596;2022-07-29T15:12:11;3.05;;;1.67;;
19521;SDS011;9905;52.126;5.596;2022-07-29T15:14:40;2.00;;;1.30;;
19521;SDS011;9905;52.126;5.596;2022-07-29T15:17:07;1.85;;;1.48;;
19521;SDS011;9905;52.126;5.596;2022-07-29T15:19:34;2.17;;;1.98;;